Time;durP1;ratioP1;P1;durP2;ratioP2;P2;SDS_P1;SDS_P2;PMS_P1;PMS_P2;Temp;Humidity;BMP_temperature;BMP_pressure;BME280_temperature;BME280_humidity;BME280_pressure;Samples;Min_cycle;Max_cycle;Signal;HPM_P1;HPM_P2
2022/11/06 00:01:10;;;;;;;11.98;4.72;;;;;;;10.70;100.00;101381.78;5226635;28;20084;-79
2022/11/06 00:03:42;;;;;;;9.55;4.15;;;;;;;10.56;100.00;101376.75;5226998;28;20030;-79
2022/11/06 00:09:07;;;;;;;8.20;3.35;;;;;;;10.63;100.00;101385.00;5226144;28;20034;-79
2022/11/06 00:11:40;;;;;;;10.02;4.47;;;;;;;10.56;100.00;101374.16;5222469;28;20081;-80
2022/11/06 00:14:12;;;;;;;8.48;4.30;;;;;;;10.56;100.00;101387.25;5225167;28;20022;-79
2022/11/06 00:16:44;;;;;;;7.13;3.90;;;;;;;10.46;100.00;101375.81;5225914;28;20379;-80
2022/11/06 00:19:16;;;;;;;9.23;3.97;;;;;;;10.50;100.00;101379.88;5207381;28;20025;-79
2022/11/06 00:21:47;;;;;;;7.72;3.60;;;;;;;10.46;100.00;101368.78;5225575;28;20026;-79
2022/11/06 00:24:18;;;;;;;10.77;4.07;;;;;;;10.51;100.00;101378.09;5225526;28;20104;-79
2022/11/06 00:26:50;;;;;;;10.90;3.85;;;;;;;10.46;100.00;101376.66;5225640;28;20021;-79
2022/11/06 00:29:21;;;;;;;9.95;4.05;;;;;;;10.42;100.00;101375.22;5225261;28;20033;-79
2022/11/06 00:31:52;;;;;;;7.53;3.60;;;;;;;10.39;100.00;101367.56;5224695;28;20096;-79
2022/11/06 00:34:24;;;;;;;9.30;3.60;;;;;;;10.44;100.00;101370.69;5225222;28;20022;-80
2022/11/06 00:36:55;;;;;;;10.45;3.80;;;;;;;10.42;100.00;101367.34;5225099;28;20021;-79
2022/11/06 00:39:26;;;;;;;6.05;2.90;;;;;;;10.41;100.00;101355.19;5225784;28;20105;-79
2022/11/06 00:41:57;;;;;;;7.78;3.65;;;;;;;10.46;100.00;101341.75;5224000;28;20029;-79
2022/11/06 00:44:29;;;;;;;7.93;3.38;;;;;;;10.46;100.00;101347.84;5224545;28;20018;-79
2022/11/06 00:47:00;;;;;;;11.98;3.75;;;;;;;10.34;100.00;101335.69;5223918;28;20022;-79
2022/11/06 00:49:31;;;;;;;9.52;3.20;;;;;;;10.38;100.00;101350.19;5223795;28;20018;-79
2022/11/06 00:52:02;;;;;;;10.10;3.30;;;;;;;10.34;100.00;101354.00;5224707;28;20111;-79
2022/11/06 00:54:34;;;;;;;12.35;3.45;;;;;;;10.34;100.00;101348.78;5223958;28;20042;-79
2022/11/06 00:57:05;;;;;;;9.95;3.35;;;;;;;10.25;100.00;101346.81;5224442;28;20026;-79
2022/11/06 00:59:37;;;;;;;10.65;3.13;;;;;;;10.24;100.00;101353.00;5224552;28;20121;-79
2022/11/06 01:02:08;;;;;;;9.75;3.00;;;;;;;10.30;100.00;101368.25;5223682;28;20022;-79
2022/11/06 01:04:39;;;;;;;10.05;3.58;;;;;;;10.18;100.00;101350.81;5223506;28;20103;-79
2022/11/06 01:07:11;;;;;;;12.85;3.47;;;;;;;10.30;100.00;101356.94;5223646;28;20100;-79
2022/11/06 01:09:42;;;;;;;9.52;2.88;;;;;;;10.26;100.00;101352.91;5223718;28;20022;-79
2022/11/06 01:12:13;;;;;;;9.40;3.20;;;;;;;10.24;100.00;101348.59;5224481;28;20104;-79
2022/11/06 01:14:45;;;;;;;9.93;2.80;;;;;;;10.22;100.00;101350.47;5223334;28;20110;-79
2022/11/06 01:17:16;;;;;;;6.25;2.70;;;;;;;10.21;100.00;101347.97;5223686;28;20026;-79
2022/11/06 01:19:47;;;;;;;10.20;3.20;;;;;;;10.28;100.00;101349.22;5220736;28;20022;-79
2022/11/06 01:22:19;;;;;;;7.22;3.30;;;;;;;10.28;100.00;101346.59;5220899;28;20022;-79
2022/11/06 01:24:50;;;;;;;8.77;3.15;;;;;;;10.31;100.00;101343.75;5219186;28;20029;-79
2022/11/06 01:27:21;;;;;;;11.00;3.35;;;;;;;10.29;100.00;101336.97;5220812;28;20041;-79
2022/11/06 01:29:53;;;;;;;7.50;3.17;;;;;;;10.31;100.00;101345.53;5223876;28;20538;-79
2022/11/06 01:32:24;;;;;;;7.05;2.70;;;;;;;10.35;100.00;101329.47;5238752;28;20026;-79
2022/11/06 01:34:55;;;;;;;7.63;3.17;;;;;;;10.33;100.00;101330.53;5223086;28;20021;-79
2022/11/06 01:37:26;;;;;;;7.90;3.08;;;;;;;10.35;100.00;101316.38;5222786;28;20029;-79
2022/11/06 01:39:58;;;;;;;6.35;2.65;;;;;;;10.40;100.00;101313.41;5223406;28;20021;-79
2022/11/06 01:42:29;;;;;;;6.22;2.30;;;;;;;10.42;100.00;101316.75;5222359;28;20156;-79
2022/11/06 01:45:22;;;;;;;6.95;2.70;;;;;;;10.74;100.00;101316.03;5222469;28;20026;-79
2022/11/06 01:47:54;;;;;;;8.77;2.42;;;;;;;10.56;100.00;101321.75;5221945;28;20052;-79
2022/11/06 01:50:26;;;;;;;9.98;3.58;;;;;;;10.53;100.00;101321.16;5223188;28;20364;-79
2022/11/06 01:52:59;;;;;;;6.28;2.45;;;;;;;10.47;100.00;101310.19;5229979;28;20492;-79
2022/11/06 01:55:36;;;;;;;11.73;3.55;;;;;;;10.64;100.00;101305.44;5220024;28;20399;-79
2022/11/06 01:58:12;;;;;;;9.25;2.67;;;;;;;10.61;100.00;101308.31;5220292;28;20071;-79
2022/11/06 02:00:45;;;;;;;7.82;2.38;;;;;;;10.57;100.00;101304.22;5220969;28;20489;-79
2022/11/06 02:03:17;;;;;;;6.35;2.25;;;;;;;10.64;100.00;101313.28;5222621;28;20037;-79
2022/11/06 02:05:49;;;;;;;8.00;2.60;;;;;;;10.63;100.00;101298.53;5220667;28;20030;-79
2022/11/06 02:08:22;;;;;;;7.00;2.30;;;;;;;10.64;100.00;101308.88;5221898;28;20100;-79
2022/11/06 02:10:53;;;;;;;7.70;2.92;;;;;;;10.69;100.00;101300.69;5223686;28;20029;-79
2022/11/06 02:13:36;;;;;;;6.70;2.63;;;;;;;10.74;100.00;101302.94;5238855;28;20021;-79
2022/11/06 02:16:38;;;;;;;5.57;2.30;;;;;;;11.01;100.00;101297.31;5246265;28;20386;-79
2022/11/06 02:19:29;;;;;;;5.93;2.22;;;;;;;10.90;100.00;101300.78;5246612;28;20022;-79
2022/11/06 02:22:21;;;;;;;7.75;2.63;;;;;;;10.85;100.00;101288.03;5204903;28;20033;-79
2022/11/06 02:25:11;;;;;;;9.65;2.55;;;;;;;10.98;100.00;101287.88;5211352;28;20025;-79
2022/11/06 02:27:50;;;;;;;7.53;2.67;;;;;;;10.82;100.00;101285.66;5205174;28;20053;-79
2022/11/06 02:30:22;;;;;;;7.22;2.70;;;;;;;10.69;100.00;101279.72;5204725;28;20046;-79
2022/11/06 02:32:58;;;;;;;10.05;2.50;;;;;;;10.76;100.00;101282.66;5214550;28;20026;-79
2022/11/06 02:35:42;;;;;;;6.93;2.30;;;;;;;10.76;100.00;101286.16;5236830;28;20029;-79
2022/11/06 02:38:21;;;;;;;8.73;2.75;;;;;;;10.74;100.00;101277.56;5223909;28;20080;-79
2022/11/06 02:41:04;;;;;;;13.02;2.90;;;;;;;10.72;100.00;101274.25;5225119;28;20021;-79
2022/11/06 02:43:43;;;;;;;9.15;2.72;;;;;;;10.64;100.00;101266.13;5204565;28;20088;-79
2022/11/06 02:46:19;;;;;;;6.20;2.22;;;;;;;10.64;100.00;101274.00;5204529;28;20097;-79
2022/11/06 02:48:57;;;;;;;5.80;2.38;;;;;;;10.67;100.00;101266.72;5204402;28;20130;-79
2022/11/06 02:51:30;;;;;;;7.05;2.70;;;;;;;10.63;100.00;101270.53;5221735;28;20041;-79
2022/11/06 02:54:04;;;;;;;;;;;;;;;11.24;100.00;101275.31;5226848;28;20274;-79
2022/11/06 02:56:41;;;;;;;8.90;2.35;;;;;;;10.72;100.00;101274.25;5226574;28;20380;-79
2022/11/06 02:59:19;;;;;;;8.43;2.58;;;;;;;10.74;100.00;101266.25;5230968;28;20030;-79
2022/11/06 03:01:58;;;;;;;8.05;2.65;;;;;;;10.71;100.00;101264.69;5225391;28;20398;-79
2022/11/06 03:04:39;;;;;;;6.90;2.10;;;;;;;10.66;100.00;101278.16;5215219;28;20036;-79
2022/11/06 03:07:17;;;;;;;8.55;2.15;;;;;;;10.64;100.00;101271.38;5218157;28;20512;-79
2022/11/06 03:09:49;;;;;;;5.50;2.05;;;;;;;10.64;100.00;101287.91;5231429;28;20114;-79
2022/11/06 03:12:38;;;;;;;9.38;3.13;;;;;;;10.91;100.00;101307.69;5230330;28;20112;-79
2022/11/06 03:15:26;;;;;;;9.10;2.55;;;;;;;10.83;100.00;101286.47;5225273;28;20029;-79
2022/11/06 03:18:11;;;;;;;7.65;2.50;;;;;;;10.79;100.00;101264.91;5230831;28;20172;-79
2022/11/06 03:20:51;;;;;;;9.27;2.63;;;;;;;10.84;100.00;101275.06;5230316;28;20073;-79
2022/11/06 03:23:34;;;;;;;8.10;2.60;;;;;;;10.81;100.00;101278.75;5227638;28;20034;-79
2022/11/06 03:26:20;;;;;;;8.65;3.13;;;;;;;10.86;100.00;101244.31;5229121;28;20029;-79
2022/11/06 03:29:11;;;;;;;8.05;2.50;;;;;;;10.85;100.00;101248.72;5230410;28;20390;-79
2022/11/06 03:32:07;;;;;;;8.20;2.50;;;;;;;10.83;100.00;101237.50;5224804;28;20063;-79
2022/11/06 03:34:51;;;;;;;4.72;2.10;;;;;;;10.72;100.00;101232.31;5228127;28;20409;-79
2022/11/06 03:37:29;;;;;;;13.45;3.50;;;;;;;10.70;100.00;101244.69;5230981;28;20137;-79
2022/11/06 03:40:07;;;;;;;7.68;2.33;;;;;;;10.66;100.00;101235.41;5225729;28;20478;-79
2022/11/06 03:42:39;;;;;;;10.00;2.38;;;;;;;10.61;100.00;101234.94;5242019;28;20075;-79
2022/11/06 03:45:15;;;;;;;6.45;2.22;;;;;;;10.67;100.00;101223.97;5231275;28;20032;-79
2022/11/06 03:48:00;;;;;;;10.90;3.47;;;;;;;10.78;100.00;101223.94;5227695;28;20033;-79
2022/11/06 03:50:37;;;;;;;10.48;2.92;;;;;;;10.74;100.00;101216.47;5223050;28;20048;-79
2022/11/06 03:53:24;;;;;;;6.88;2.38;;;;;;;10.81;100.00;101215.03;5228409;28;20025;-79
2022/11/06 03:56:01;;;;;;;6.30;2.35;;;;;;;10.76;100.00;101206.66;5231235;28;20543;-79
2022/11/06 03:58:37;;;;;;;7.53;2.10;;;;;;;10.76;100.00;101190.94;5247370;28;20511;-79
2022/11/06 04:01:10;;;;;;;8.80;2.50;;;;;;;10.70;100.00;101198.34;5246465;28;20048;-80
2022/11/06 04:03:57;;;;;;;;;;;;;;;11.28;100.00;101198.03;5245615;28;20029;-79
2022/11/06 04:06:45;;;;;;;7.78;2.40;;;;;;;10.87;100.00;101191.78;5242896;28;20665;-80
2022/11/06 04:15:10;;;;;;;9.95;2.20;;;;;;;10.61;100.00;101166.81;5248818;28;20509;-80
2022/11/06 04:17:42;;;;;;;7.45;2.25;;;;;;;10.74;100.00;101190.25;5245615;28;20029;-79
2022/11/06 04:21:20;;;;;;;7.95;2.17;;;;;;;10.80;100.00;101181.91;5248588;28;20415;-79
2022/11/06 04:23:29;;;;;;;7.40;2.60;;;;;;;10.90;100.00;101174.94;5245708;28;20068;-79
2022/11/06 04:26:41;;;;;;;7.10;1.63;;;;;;;11.07;100.00;101168.34;5251253;28;20048;-79
2022/11/06 04:29:41;;;;;;;6.45;2.33;;;;;;;10.98;100.00;101159.44;5173238;28;20034;-79
2022/11/06 04:32:24;;;;;;;5.82;2.33;;;;;;;10.78;100.00;101163.66;5246765;28;20500;-79
2022/11/06 04:35:26;;;;;;;9.48;2.35;;;;;;;10.97;100.00;101165.63;5243538;28;20029;-79
2022/11/06 04:38:08;;;;;;;7.47;2.47;;;;;;;10.80;100.00;101171.44;5246771;28;20029;-79
2022/11/06 04:40:52;;;;;;;4.82;1.98;;;;;;;10.67;100.00;101167.16;5246156;28;20029;-79
2022/11/06 04:43:48;;;;;;;6.40;2.15;;;;;;;10.93;100.00;101162.44;5230167;28;20037;-79
2022/11/06 04:46:26;;;;;;;6.35;2.10;;;;;;;10.67;100.00;101151.44;5235723;28;20036;-79
2022/11/06 04:49:01;;;;;;;5.25;1.90;;;;;;;10.63;100.00;101157.88;5246471;28;20414;-79
2022/11/06 04:51:35;;;;;;;5.68;2.33;;;;;;;10.63;100.00;101154.41;5242652;28;20029;-80
2022/11/06 04:54:09;;;;;;;5.68;2.25;;;;;;;10.56;100.00;101153.25;5246546;28;20084;-80
2022/11/06 04:56:40;;;;;;;6.50;2.30;;;;;;;10.59;100.00;101150.38;5245551;28;20390;-79
2022/11/06 04:59:16;;;;;;;7.18;2.30;;;;;;;10.64;100.00;101154.28;5243802;28;20013;-79
2022/11/06 05:01:48;;;;;;;5.22;1.90;;;;;;;10.56;100.00;101150.63;5242033;28;20096;-79
2022/11/06 05:04:19;;;;;;;11.30;2.92;;;;;;;10.56;100.00;101140.13;5245987;28;20109;-80
2022/11/06 05:06:50;;;;;;;10.75;2.25;;;;;;;10.57;100.00;101147.03;5240315;28;20048;-79
2022/11/06 05:09:22;;;;;;;6.13;2.35;;;;;;;10.55;100.00;101141.94;5243634;28;20033;-79
2022/11/06 05:11:53;;;;;;;7.72;2.45;;;;;;;10.52;100.00;101138.72;5239994;28;20025;-79
2022/11/06 05:14:25;;;;;;;5.15;1.90;;;;;;;10.51;100.00;101129.22;5244449;28;20040;-79
2022/11/06 05:16:56;;;;;;;9.25;2.55;;;;;;;10.52;100.00;101136.94;5241741;28;20021;-79
2022/11/06 05:19:27;;;;;;;7.60;2.38;;;;;;;10.52;100.00;101126.44;5247241;28;20542;-78
2022/11/06 05:24:48;;;;;;;4.13;1.90;;;;;;;10.49;100.00;101116.22;5246543;28;20053;-79
2022/11/06 05:27:20;;;;;;;6.03;2.40;;;;;;;10.52;100.00;101125.63;5245788;28;20033;-79
2022/11/06 05:29:51;;;;;;;4.97;2.22;;;;;;;10.46;100.00;101122.56;5245125;28;20055;-79
2022/11/06 05:32:22;;;;;;;5.20;1.83;;;;;;;10.54;100.00;101123.72;5227007;28;20075;-80
2022/11/06 05:34:53;;;;;;;5.43;2.55;;;;;;;10.52;100.00;101120.38;5247807;28;20028;-78
2022/11/06 05:37:26;;;;;;;6.20;1.80;;;;;;;10.52;100.00;101123.00;5241208;28;20410;-78
2022/11/06 05:39:57;;;;;;;6.63;2.10;;;;;;;10.55;100.00;101120.16;5249568;28;20017;-78
2022/11/06 05:42:28;;;;;;;5.03;1.90;;;;;;;10.53;100.00;101119.41;5241071;28;20086;-78
2022/11/06 05:45:00;;;;;;;8.15;2.20;;;;;;;10.51;100.00;101114.31;5242980;28;20034;-78
2022/11/06 05:47:31;;;;;;;8.30;2.10;;;;;;;10.49;100.00;101116.22;5249564;28;20035;-78
2022/11/06 05:50:03;;;;;;;8.63;2.42;;;;;;;10.51;100.00;101114.31;5246579;28;20025;-78
2022/11/06 05:52:35;;;;;;;5.47;1.92;;;;;;;10.47;100.00;101105.88;5244341;28;20330;-78
2022/11/06 05:55:06;;;;;;;8.73;2.42;;;;;;;10.48;100.00;101114.56;5230149;28;20047;-78
2022/11/06 05:57:38;;;;;;;9.82;2.33;;;;;;;10.52;100.00;101117.78;5247587;28;20124;-78
2022/11/06 06:00:10;;;;;;;6.13;2.42;;;;;;;10.51;100.00;101100.41;5228659;28;20420;-78
2022/11/06 06:02:42;;;;;;;7.70;2.33;;;;;;;10.52;100.00;101091.56;5245245;28;20505;-78
2022/11/06 06:05:13;;;;;;;7.35;2.45;;;;;;;10.50;100.00;101096.13;5230431;28;20025;-79
2022/11/06 06:07:44;;;;;;;6.18;1.98;;;;;;;10.50;100.00;101107.44;5245657;28;20035;-78
2022/11/06 06:10:16;;;;;;;9.85;2.40;;;;;;;10.50;100.00;101101.34;5248561;28;20465;-79
2022/11/06 06:12:50;;;;;;;5.80;2.10;;;;;;;10.60;100.00;101104.88;5246928;28;20029;-78
2022/11/06 06:15:22;;;;;;;5.03;2.05;;;;;;;10.45;100.00;101086.00;5246268;28;20025;-79
2022/11/06 06:17:53;;;;;;;5.22;1.90;;;;;;;10.48;100.00;101093.59;5247077;28;20075;-78
2022/11/06 06:20:25;;;;;;;6.47;2.20;;;;;;;10.52;100.00;101088.94;5250301;28;20039;-78
2022/11/06 06:22:57;;;;;;;5.30;2.05;;;;;;;10.51;100.00;101089.91;5245324;28;20029;-78
2022/11/06 06:25:29;;;;;;;6.93;1.80;;;;;;;10.46;100.00;101077.19;5244776;28;20144;-78
2022/11/06 06:28:00;;;;;;;6.20;2.00;;;;;;;10.42;100.00;101078.41;5243474;28;20117;-78
2022/11/06 06:30:32;;;;;;;6.55;2.08;;;;;;;10.50;100.00;101093.50;5247031;28;20029;-78
2022/11/06 06:33:05;;;;;;;6.13;1.95;;;;;;;10.48;100.00;101090.97;5248004;28;20056;-78
2022/11/06 06:35:36;;;;;;;5.43;1.98;;;;;;;10.48;100.00;101097.06;5223075;28;20473;-78
2022/11/06 06:38:08;;;;;;;5.45;1.90;;;;;;;10.42;100.00;101100.19;5249106;28;20028;-79
2022/11/06 06:40:39;;;;;;;7.22;2.25;;;;;;;10.46;100.00;101101.59;5249205;28;20494;-78
2022/11/06 06:43:11;;;;;;;6.47;2.03;;;;;;;10.47;100.00;101097.19;5247387;28;20071;-80
2022/11/06 06:45:42;;;;;;;5.72;1.88;;;;;;;10.50;100.00;101102.19;5247795;28;20643;-79
2022/11/06 06:48:13;;;;;;;7.78;1.73;;;;;;;10.49;100.00;101095.25;5247479;28;20021;-79
2022/11/06 06:50:44;;;;;;;4.03;1.63;;;;;;;10.49;100.00;101100.50;5245103;28;20028;-79
2022/11/06 06:53:16;;;;;;;8.05;2.13;;;;;;;10.47;100.00;101087.53;5247254;28;20013;-81
2022/11/06 06:55:47;;;;;;;9.13;2.30;;;;;;;10.51;100.00;101090.75;5230455;28;20053;-79
2022/11/06 06:58:18;;;;;;;6.25;2.28;;;;;;;10.57;100.00;101082.41;5245632;28;20037;-79
2022/11/06 07:00:49;;;;;;;5.15;2.10;;;;;;;10.56;100.00;101072.84;5247526;28;20028;-80
2022/11/06 07:03:21;;;;;;;9.90;3.00;;;;;;;10.62;100.00;101079.41;5230292;28;20048;-79
2022/11/06 07:05:52;;;;;;;6.68;2.00;;;;;;;10.71;100.00;101084.72;5243188;28;20021;-79
2022/11/06 07:08:25;;;;;;;10.05;2.15;;;;;;;10.79;100.00;101089.31;5227124;28;20040;-79
2022/11/06 07:11:06;;;;;;;5.95;2.08;;;;;;;10.96;100.00;101093.19;5248346;28;20083;-80
2022/11/06 07:13:37;;;;;;;8.73;1.98;;;;;;;10.85;100.00;101073.09;5245739;28;20063;-79
2022/11/06 07:16:10;;;;;;;7.60;1.90;;;;;;;11.03;100.00;101080.41;5249547;28;20021;-80
2022/11/06 07:18:41;;;;;;;10.82;3.25;;;;;;;11.08;100.00;101081.69;5247094;28;20474;-80
2022/11/06 07:21:13;;;;;;;5.63;1.75;;;;;;;11.17;100.00;101078.31;5245715;28;20025;-79
2022/11/06 07:23:45;;;;;;;7.25;1.90;;;;;;;11.13;100.00;101074.25;5231427;28;20026;-79
2022/11/06 07:26:16;;;;;;;8.75;1.98;;;;;;;11.19;100.00;101075.56;5246626;28;20025;-80
2022/11/06 07:28:47;;;;;;;6.47;1.67;;;;;;;11.26;100.00;101079.34;5248438;28;20027;-79
2022/11/06 07:31:18;;;;;;;5.25;1.60;;;;;;;11.30;100.00;101077.28;5229380;28;20021;-81
2022/11/06 07:33:50;;;;;;;6.35;1.85;;;;;;;11.35;100.00;101083.78;5246793;28;20486;-78
2022/11/06 07:36:21;;;;;;;6.78;1.58;;;;;;;11.43;100.00;101080.53;5246244;28;20029;-79
2022/11/06 07:38:52;;;;;;;9.38;1.98;;;;;;;11.50;100.00;101086.09;5248286;28;20036;-79
2022/11/06 07:41:24;;;;;;;5.95;1.88;;;;;;;11.52;100.00;101086.81;5247323;28;20035;-79
2022/11/06 07:43:55;;;;;;;7.32;2.47;;;;;;;11.54;100.00;101075.19;5244696;28;20448;-79
2022/11/06 07:46:26;;;;;;;7.13;1.98;;;;;;;11.56;100.00;101060.16;5246000;28;20094;-78
2022/11/06 07:48:57;;;;;;;6.78;2.17;;;;;;;11.63;100.00;101061.31;5245952;28;20032;-80
2022/11/06 07:51:29;;;;;;;5.28;1.90;;;;;;;11.65;100.00;101069.84;5244226;28;20065;-79
2022/11/06 07:54:00;;;;;;;7.15;2.00;;;;;;;11.67;100.00;101048.75;5239306;28;20033;-78
2022/11/06 07:56:32;;;;;;;9.73;2.35;;;;;;;11.63;100.00;101036.81;5241720;28;20083;-79
2022/11/06 07:59:04;;;;;;;5.55;1.70;;;;;;;11.77;100.00;101046.16;5244205;28;21058;-79
2022/11/06 08:01:35;;;;;;;5.13;1.60;;;;;;;11.76;100.00;101039.25;5228733;28;20171;-79
2022/11/06 08:04:07;;;;;;;8.15;2.13;;;;;;;11.81;100.00;101043.13;5253578;28;20040;-79
2022/11/06 08:06:38;;;;;;;5.90;1.73;;;;;;;11.82;100.00;101049.19;5240852;28;20028;-79
2022/11/06 08:09:09;;;;;;;5.82;1.90;;;;;;;11.84;100.00;101053.38;5246396;28;20128;-78
2022/11/06 08:11:40;;;;;;;6.10;1.73;;;;;;;11.81;100.00;101053.63;5244700;28;20572;-80
2022/11/06 08:14:12;;;;;;;6.65;1.80;;;;;;;11.87;100.00;101049.69;5242597;28;20021;-80
2022/11/06 08:16:43;;;;;;;5.38;2.42;;;;;;;11.90;100.00;101045.00;5242086;28;20469;-81
2022/11/06 08:19:14;;;;;;;5.57;1.50;;;;;;;12.01;100.00;101049.31;5250811;28;20017;-80
2022/11/06 08:21:45;;;;;;;5.90;1.70;;;;;;;12.02;100.00;101044.88;5247704;28;20041;-80
2022/11/06 08:24:17;;;;;;;7.95;2.50;;;;;;;12.04;100.00;101046.38;5248359;28;20025;-80
2022/11/06 08:26:48;;;;;;;5.20;1.58;;;;;;;12.07;100.00;101043.50;5247705;28;20201;-79
2022/11/06 08:29:19;;;;;;;4.47;1.25;;;;;;;12.09;100.00;101031.06;5245055;28;20049;-80
2022/11/06 08:31:51;;;;;;;5.65;1.67;;;;;;;12.16;100.00;101039.25;5245921;28;20555;-79
2022/11/06 08:34:22;;;;;;;6.68;1.80;;;;;;;12.21;100.00;101030.97;5245547;28;20389;-80
2022/11/06 08:36:53;;;;;;;5.00;1.80;;;;;;;12.28;100.00;101022.41;5245884;28;20024;-81
2022/11/06 08:39:25;;;;;;;7.20;1.60;;;;;;;12.38;100.00;101023.22;5244502;28;20375;-79
2022/11/06 08:41:56;;;;;;;3.88;1.75;;;;;;;12.42;100.00;101026.41;5243137;28;20036;-79
2022/11/06 08:44:27;;;;;;;11.48;2.05;;;;;;;12.49;100.00;101024.88;5228989;28;20035;-79
2022/11/06 08:46:58;;;;;;;6.50;2.15;;;;;;;12.47;100.00;101012.88;5244807;28;20013;-80
2022/11/06 08:49:30;;;;;;;5.30;1.50;;;;;;;12.50;100.00;101017.81;5245064;28;20056;-81
2022/11/06 08:52:01;;;;;;;7.07;1.95;;;;;;;12.50;100.00;101008.16;5242935;28;20025;-80
2022/11/06 08:54:32;;;;;;;5.60;2.00;;;;;;;12.50;100.00;101013.44;5239578;28;20439;-80
2022/11/06 08:57:03;;;;;;;8.23;1.85;;;;;;;12.57;100.00;101014.50;5240920;28;20392;-80
2022/11/06 08:59:35;;;;;;;6.82;1.77;;;;;;;12.59;100.00;101011.75;5240853;28;20030;-80
2022/11/06 09:02:11;;;;;;;5.90;1.45;;;;;;;12.74;100.00;101010.34;5223622;28;20034;-80
2022/11/06 09:04:42;;;;;;;5.25;1.30;;;;;;;12.71;100.00;101005.38;5241006;28;20024;-80
2022/11/06 09:07:14;;;;;;;6.03;1.60;;;;;;;12.80;100.00;100996.63;5241552;28;20033;-80
2022/11/06 09:09:45;;;;;;;4.03;1.13;;;;;;;12.83;100.00;100987.66;5223579;28;20029;-80
2022/11/06 09:12:17;;;;;;;6.60;1.67;;;;;;;12.76;100.00;100982.13;5241382;28;20111;-80
2022/11/06 09:14:48;;;;;;;6.82;1.75;;;;;;;12.87;100.00;100983.75;5251985;28;20091;-80
2022/11/06 09:17:22;;;;;;;6.35;2.15;;;;;;;12.81;100.00;100971.19;5241440;28;20110;-79
2022/11/06 09:19:53;;;;;;;6.55;1.90;;;;;;;12.86;100.00;100964.53;5240770;28;20401;-79
2022/11/06 09:22:25;;;;;;;6.85;1.90;;;;;;;12.91;100.00;100972.00;5244852;28;20033;-80
2022/11/06 09:24:56;;;;;;;7.85;1.60;;;;;;;12.94;100.00;100961.19;5244975;28;20160;-79
2022/11/06 09:27:27;;;;;;;7.20;1.60;;;;;;;13.00;100.00;100962.44;5245483;28;20452;-80
2022/11/06 09:29:59;;;;;;;7.18;1.50;;;;;;;13.03;100.00;100954.22;5245586;28;20601;-80
2022/11/06 09:32:30;;;;;;;5.13;1.27;;;;;;;13.08;100.00;100944.13;5241908;28;20026;-80
2022/11/06 09:35:02;;;;;;;7.38;1.70;;;;;;;13.06;100.00;100943.44;5253713;28;20100;-80
2022/11/06 09:37:33;;;;;;;5.57;1.50;;;;;;;13.02;100.00;100945.53;5255020;28;20477;-80
2022/11/06 09:40:05;;;;;;;5.68;1.45;;;;;;;13.04;100.00;100951.47;5244335;28;20033;-80
2022/11/06 09:42:52;;;;;;;4.23;1.60;;;;;;;13.24;100.00;100941.75;5244472;28;20032;-79
2022/11/06 09:45:27;;;;;;;4.15;1.35;;;;;;;13.13;100.00;100949.78;5242264;28;20033;-80
2022/11/06 09:48:11;;;;;;;6.40;1.60;;;;;;;13.27;100.00;100948.53;5245866;28;20079;-80
2022/11/06 09:50:58;;;;;;;6.50;1.48;;;;;;;13.40;100.00;100938.47;5244931;28;20034;-80
2022/11/06 09:53:35;;;;;;;3.85;1.52;;;;;;;13.35;100.00;100943.34;5223541;28;20092;-80
2022/11/06 09:56:11;;;;;;;7.60;1.65;;;;;;;13.36;100.00;100939.75;5211546;28;20497;-80
2022/11/06 09:58:43;;;;;;;5.55;1.20;;;;;;;13.30;100.00;100943.81;5264826;28;20116;-80
2022/11/06 10:01:23;;;;;;;4.32;1.67;;;;;;;13.36;100.00;100943.19;5266461;28;20095;-80
2022/11/06 10:04:00;;;;;;;7.80;2.20;;;;;;;13.42;100.00;100936.53;5250992;28;20031;-80
2022/11/06 10:06:31;;;;;;;5.80;2.00;;;;;;;13.52;100.00;100936.47;5227500;28;20029;-80
2022/11/06 10:09:05;;;;;;;4.65;2.05;;;;;;;13.61;100.00;100930.34;5246001;28;20074;-80
2022/11/06 10:11:55;;;;;;;5.05;1.45;;;;;;;13.82;100.00;100927.41;5261487;28;20116;-79
2022/11/06 10:14:32;;;;;;;4.90;1.73;;;;;;;13.68;100.00;100931.41;5264385;28;20020;-79
2022/11/06 10:17:12;;;;;;;4.97;1.60;;;;;;;13.54;100.00;100919.56;5237904;28;20101;-80
2022/11/06 10:20:16;;;;;;;7.07;1.70;;;;;;;13.46;100.00;100919.47;5253748;28;20028;-80
2022/11/06 10:22:56;;;;;;;7.50;1.98;;;;;;;13.63;100.00;100923.09;5191209;28;20089;-80
2022/11/06 10:25:43;;;;;;;5.95;1.40;;;;;;;13.45;100.00;100914.34;5243168;28;20025;-80
2022/11/06 10:28:49;;;;;;;4.90;1.73;;;;;;;13.53;100.00;100901.31;5234660;28;20056;-80
2022/11/06 10:31:29;;;;;;;5.45;1.48;;;;;;;13.32;100.00;100912.91;5237728;28;20478;-80
2022/11/06 10:34:14;;;;;;;5.63;1.88;;;;;;;13.44;100.00;100902.16;5246182;28;20029;-80
2022/11/06 10:36:56;;;;;;;5.13;1.55;;;;;;;13.47;100.00;100901.88;5242757;28;20021;-80
2022/11/06 10:39:30;;;;;;;6.50;1.70;;;;;;;13.41;100.00;100908.56;5240776;28;20029;-80
2022/11/06 10:42:23;;;;;;;6.35;1.50;;;;;;;13.59;100.00;100892.78;5223700;28;20470;-80
2022/11/06 10:44:58;;;;;;;5.87;1.70;;;;;;;13.53;100.00;100885.50;5229996;28;20033;-79
2022/11/06 10:47:35;;;;;;;4.25;1.55;;;;;;;13.60;100.00;100876.88;5242370;28;20029;-80
2022/11/06 10:50:12;;;;;;;7.97;1.70;;;;;;;13.63;100.00;100875.72;5244974;28;20635;-80
2022/11/06 10:53:03;;;;;;;6.32;1.60;;;;;;;13.83;100.00;100860.63;5224746;28;20034;-79
2022/11/06 10:56:03;;;;;;;6.80;1.70;;;;;;;13.84;100.00;100855.19;5243885;28;20406;-79
2022/11/06 10:58:35;;;;;;;6.22;1.92;;;;;;;13.79;100.00;100836.41;5235968;28;20041;-79
2022/11/06 11:01:12;;;;;;;4.28;1.50;;;;;;;13.95;100.00;100848.88;5231432;28;20381;-79
2022/11/06 11:03:45;;;;;;;4.45;1.50;;;;;;;13.84;100.00;100844.66;5243520;28;20032;-79
2022/11/06 11:06:16;;;;;;;;;;;;;;;14.51;100.00;100844.22;5252449;28;20021;-79
2022/11/06 11:08:49;;;;;;;6.87;1.20;;;;;;;14.03;100.00;100837.59;5252553;28;19923;-79
2022/11/06 11:11:25;;;;;;;7.68;1.65;;;;;;;14.06;100.00;100839.91;5247581;28;20017;-79
2022/11/06 11:14:00;;;;;;;4.40;1.38;;;;;;;14.08;100.00;100843.22;5245138;28;20032;-79
2022/11/06 11:16:41;;;;;;;6.10;1.60;;;;;;;14.05;100.00;100844.38;5239229;28;20033;-79
2022/11/06 11:19:34;;;;;;;5.28;1.30;;;;;;;14.16;100.00;100838.00;5244384;28;20382;-79
2022/11/06 11:22:20;;;;;;;5.35;1.42;;;;;;;14.18;100.00;100833.41;5244381;28;20032;-79
2022/11/06 11:25:07;;;;;;;4.20;1.35;;;;;;;14.05;100.00;100827.69;5249311;28;20564;-79
2022/11/06 11:27:44;;;;;;;8.43;1.60;;;;;;;13.99;100.00;100820.44;5239481;28;20041;-80
2022/11/06 11:30:22;;;;;;;4.47;1.40;;;;;;;14.11;100.00;100816.56;5241765;28;20060;-79
2022/11/06 11:32:54;;;;;;;5.30;1.40;;;;;;;14.03;100.00;100808.59;5231760;28;20025;-79
2022/11/06 11:35:28;;;;;;;3.90;1.53;;;;;;;14.09;100.00;100807.97;5249717;28;20037;-79
2022/11/06 11:38:10;;;;;;;6.85;1.80;;;;;;;13.99;100.00;100808.09;5254097;28;20059;-79
2022/11/06 11:40:42;;;;;;;6.18;1.80;;;;;;;13.95;100.00;100812.00;5248818;28;20033;-79
2022/11/06 11:43:25;;;;;;;5.63;1.20;;;;;;;14.07;100.00;100813.41;5241264;28;20082;-81
2022/11/06 11:46:00;;;;;;;;;;;;;;;14.56;100.00;100810.28;5241735;28;20139;-77
2022/11/06 11:48:42;;;;;;;4.53;1.25;;;;;;;13.97;100.00;100791.59;5251936;28;19913;-79
2022/11/06 11:51:28;;;;;;;6.82;1.55;;;;;;;13.99;100.00;100804.63;5248133;28;20025;-79
2022/11/06 11:54:05;;;;;;;3.53;1.15;;;;;;;13.84;100.00;100794.63;5248905;28;20025;-79
2022/11/06 11:56:51;;;;;;;5.18;1.15;;;;;;;13.99;100.00;100799.34;5242339;28;20025;-79
2022/11/06 11:59:28;;;;;;;5.40;1.83;;;;;;;13.89;100.00;100778.38;5238998;28;20040;-79
2022/11/06 12:02:10;;;;;;;4.60;1.27;;;;;;;13.92;100.00;100779.88;5246819;28;20028;-78
2022/11/06 12:04:46;;;;;;;6.82;1.52;;;;;;;13.88;100.00;100777.53;5242567;28;20025;-77
2022/11/06 12:07:36;;;;;;;4.30;1.50;;;;;;;14.11;100.00;100758.59;5242032;28;20363;-78